createdAt,value
2018-02-04T00:01:10.118Z,98115.88
2018-02-04T00:03:38.384Z,98118.00
2018-02-04T00:06:06.982Z,98112.73
2018-02-04T00:08:34.406Z,98108.03
2018-02-04T00:11:01.829Z,98115.77
2018-02-04T00:13:29.390Z,98114.33
2018-02-04T00:15:56.821Z,98118.52
2018-02-04T00:18:24.255Z,98116.73
2018-02-04T00:20:51.683Z,98120.06
2018-02-04T00:23:19.249Z,98111.70
2018-02-04T00:25:46.670Z,98113.47
2018-02-04T00:28:14.102Z,98114.95
2018-02-04T00:30:41.519Z,98119.02
2018-02-04T00:33:08.949Z,98120.78
2018-02-04T00:35:36.407Z,98126.81
2018-02-04T00:38:03.984Z,98125.64
2018-02-04T00:40:31.737Z,98127.03
2018-02-04T00:43:00.687Z,98119.73
2018-02-04T00:45:28.118Z,98120.38
2018-02-04T00:47:55.602Z,98127.71
2018-02-04T00:50:23.365Z,98126.22
2018-02-04T00:52:51.442Z,98126.52
2018-02-04T00:55:18.877Z,98132.00
2018-02-04T00:57:46.285Z,98137.64
2018-02-04T01:00:13.833Z,98134.50
2018-02-04T01:02:41.579Z,98141.91
2018-02-04T01:05:09.065Z,98148.80
2018-02-04T01:07:36.540Z,98141.02
2018-02-04T01:10:03.969Z,98148.55
2018-02-04T01:12:31.717Z,98150.16
2018-02-04T01:14:59.210Z,98149.42
2018-02-04T01:17:27.470Z,98155.19
2018-02-04T01:19:54.965Z,98155.61
2018-02-04T01:22:22.381Z,98157.08
2018-02-04T01:24:49.809Z,98161.53
2018-02-04T01:27:17.221Z,98159.47
2018-02-04T01:29:44.801Z,98164.02
2018-02-04T01:32:12.218Z,98164.35
2018-02-04T01:34:39.651Z,98169.30
2018-02-04T01:37:07.155Z,98173.64
2018-02-04T01:39:34.699Z,98175.39
2018-02-04T01:42:02.117Z,98176.42
2018-02-04T01:44:29.583Z,98179.52
2018-02-04T01:46:57.165Z,98178.11
2018-02-04T01:49:24.810Z,98181.03
2018-02-04T01:51:52.517Z,98180.49
2018-02-04T01:54:19.975Z,98177.50
2018-02-04T01:56:47.438Z,98178.26
2018-02-04T01:59:15.738Z,98173.02
2018-02-04T02:01:43.410Z,98170.42
2018-02-04T02:04:11.003Z,98173.62
2018-02-04T02:06:38.601Z,98165.66
2018-02-04T02:09:05.968Z,98169.28
2018-02-04T02:11:33.417Z,98175.73
2018-02-04T02:14:00.845Z,98176.17
2018-02-04T02:16:28.285Z,98178.91
2018-02-04T02:18:55.766Z,98182.28
2018-02-04T02:21:23.200Z,98188.78
2018-02-04T02:23:50.735Z,98186.48
2018-02-04T02:26:18.161Z,98185.25
2018-02-04T02:28:45.586Z,98193.11
2018-02-04T02:31:13.017Z,98191.67
2018-02-04T02:33:40.476Z,98201.86
2018-02-04T02:36:07.895Z,98204.77
2018-02-04T02:38:35.473Z,98205.30
2018-02-04T02:41:05.755Z,98200.11
2018-02-04T02:43:33.400Z,98201.98
2018-02-04T02:46:00.962Z,98205.93
2018-02-04T02:48:28.786Z,98207.63
2018-02-04T02:50:56.386Z,98214.20
2018-02-04T02:53:24.333Z,98217.37
2018-02-04T02:55:51.759Z,98218.05
2018-02-04T02:58:19.169Z,98220.02
2018-02-04T03:00:46.671Z,98219.93
2018-02-04T03:03:14.077Z,98221.36
2018-02-04T03:05:41.526Z,98227.15
2018-02-04T03:08:09.059Z,98224.25
2018-02-04T03:10:36.482Z,98233.29
2018-02-04T03:13:05.070Z,98229.73
2018-02-04T03:15:32.576Z,98232.84
2018-02-04T03:18:00.037Z,98231.88
2018-02-04T03:20:27.461Z,98235.58
2018-02-04T03:22:54.949Z,98231.39
2018-02-04T03:25:22.494Z,98240.59
2018-02-04T03:27:50.173Z,98239.86
2018-02-04T03:30:17.930Z,98243.72
2018-02-04T03:32:45.413Z,98245.83
2018-02-04T03:35:12.832Z,98247.80
2018-02-04T03:37:40.263Z,98245.20
2018-02-04T03:40:07.767Z,98246.30
2018-02-04T03:42:35.506Z,98257.93
2018-02-04T03:45:03.138Z,98260.69
2018-02-04T03:47:33.313Z,98264.68
2018-02-04T03:50:00.732Z,98265.05
2018-02-04T03:52:28.380Z,98263.20
2018-02-04T03:54:55.803Z,98268.86
2018-02-04T03:57:23.375Z,98268.63
2018-02-04T03:59:50.829Z,98274.77
2018-02-04T04:02:18.273Z,98275.86
2018-02-04T04:04:45.711Z,98274.77
2018-02-04T04:07:13.246Z,98280.05
2018-02-04T04:09:40.662Z,98276.36
2018-02-04T04:12:08.117Z,98282.12
2018-02-04T04:14:35.536Z,98279.80
2018-02-04T04:17:04.050Z,98289.31
2018-02-04T04:19:31.709Z,98288.88
2018-02-04T04:21:59.134Z,98284.78
2018-02-04T04:24:26.545Z,98288.16
2018-02-04T04:26:53.974Z,98286.87
2018-02-04T04:29:21.608Z,98288.10
2018-02-04T04:31:49.022Z,98281.78
2018-02-04T04:34:16.456Z,98286.13
2018-02-04T04:36:44.530Z,98283.23
2018-02-04T04:39:11.963Z,98282.88
2018-02-04T04:41:39.387Z,98289.45
2018-02-04T04:44:07.861Z,98296.08
2018-02-04T04:46:35.282Z,98292.57
2018-02-04T04:49:02.749Z,98293.63
2018-02-04T04:51:30.171Z,98294.58
2018-02-04T04:53:57.631Z,98296.11
2018-02-04T04:56:25.922Z,98302.42
2018-02-04T04:58:53.360Z,98307.30
2018-02-04T05:01:20.924Z,98306.66
2018-02-04T05:03:48.292Z,98310.33
2018-02-04T05:06:15.707Z,98308.17
2018-02-04T05:08:43.135Z,98318.38
2018-02-04T05:11:10.757Z,98315.51
2018-02-04T05:13:39.084Z,98309.73
2018-02-04T05:16:06.492Z,98321.10
2018-02-04T05:18:34.140Z,98319.86
2018-02-04T05:21:01.547Z,98326.74
2018-02-04T05:23:28.990Z,98324.40
2018-02-04T05:25:56.720Z,98319.13
2018-02-04T05:28:24.142Z,98325.94
2018-02-04T05:30:51.994Z,98330.08
2018-02-04T05:33:20.636Z,98331.69
2018-02-04T05:35:48.054Z,98337.55
2018-02-04T05:38:15.488Z,98332.37
2018-02-04T05:40:42.903Z,98342.17
2018-02-04T05:43:10.457Z,98344.36
2018-02-04T05:45:39.671Z,98351.17
2018-02-04T05:48:07.103Z,98353.77
2018-02-04T05:50:34.565Z,98358.03
2018-02-04T05:53:01.999Z,98361.94
2018-02-04T05:55:29.618Z,98367.29
2018-02-04T05:57:57.062Z,98364.79
2018-02-04T06:00:24.473Z,98366.95
2018-02-04T06:02:52.006Z,98374.27
2018-02-04T06:05:19.426Z,98372.63
2018-02-04T06:07:46.837Z,98379.27
2018-02-04T06:10:14.338Z,98383.39
2018-02-04T06:12:41.849Z,98391.69
2018-02-04T06:15:09.265Z,98396.89
2018-02-04T06:17:36.687Z,98390.55
2018-02-04T06:20:04.208Z,98395.63
2018-02-04T06:22:31.615Z,98400.33
2018-02-04T06:24:59.122Z,98399.59
2018-02-04T06:27:27.114Z,98404.08
2018-02-04T06:29:54.542Z,98400.09
2018-02-04T06:32:22.070Z,98409.88
2018-02-04T06:34:51.256Z,98420.72
2018-02-04T06:37:18.833Z,98413.16
2018-02-04T06:39:46.285Z,98415.78
2018-02-04T06:42:13.706Z,98419.04
2018-02-04T06:44:43.013Z,98421.56
2018-02-04T06:47:10.430Z,98427.14
2018-02-04T06:49:37.993Z,98424.00
2018-02-04T06:52:05.425Z,98432.01
2018-02-04T06:54:33.148Z,98434.52
2018-02-04T06:57:00.569Z,98436.81
2018-02-04T06:59:28.002Z,98443.46
2018-02-04T07:01:55.411Z,98454.27
2018-02-04T07:04:22.847Z,98453.11
2018-02-04T07:06:50.266Z,98458.73
2018-02-04T07:09:17.836Z,98463.23
2018-02-04T07:11:45.695Z,98465.53
2018-02-04T07:14:14.126Z,98474.63
2018-02-04T07:16:41.562Z,98478.44
2018-02-04T07:19:11.206Z,98483.77
2018-02-04T07:21:38.967Z,98484.72
2018-02-04T07:24:06.669Z,98481.55
2018-02-04T07:26:34.130Z,98487.78
2018-02-04T07:29:01.897Z,98487.39
2018-02-04T07:31:29.309Z,98497.25
2018-02-04T07:33:57.109Z,98488.63
2018-02-04T07:36:25.357Z,98493.36
2018-02-04T07:38:52.764Z,98494.23
2018-02-04T07:41:20.188Z,98506.47
2018-02-04T07:43:47.588Z,98504.04
2018-02-04T07:46:15.497Z,98508.21
2018-02-04T07:48:42.910Z,98505.17
2018-02-04T07:51:10.303Z,98498.72
2018-02-04T07:53:37.708Z,98501.42
2018-02-04T07:56:05.120Z,98505.88
2018-02-04T07:58:32.545Z,98502.77
2018-02-04T08:00:59.961Z,98502.72
2018-02-04T08:03:27.361Z,98509.41
2018-02-04T08:05:54.780Z,98512.31
2018-02-04T08:08:22.197Z,98508.58
2018-02-04T08:10:49.620Z,98522.02
2018-02-04T08:13:17.022Z,98517.80
2018-02-04T08:15:44.503Z,98526.23
2018-02-04T08:18:11.867Z,98531.27
2018-02-04T08:20:39.288Z,98527.55
2018-02-04T08:23:06.697Z,98539.82
2018-02-04T08:25:34.108Z,98534.34
2018-02-04T08:28:01.523Z,98535.88
2018-02-04T08:30:28.937Z,98541.98
2018-02-04T08:32:56.350Z,98543.31
2018-02-04T08:35:23.766Z,98548.84
2018-02-04T08:37:51.177Z,98546.44
2018-02-04T08:46:24.906Z,98557.02
2018-02-04T08:48:52.376Z,98562.86
2018-02-04T08:51:19.760Z,98559.35
2018-02-04T08:53:47.161Z,98562.34
2018-02-04T08:56:14.569Z,98557.67
2018-02-04T08:58:41.983Z,98558.84
2018-02-04T09:01:09.386Z,98561.45
2018-02-04T09:06:35.266Z,98567.77
2018-02-04T09:09:02.686Z,98563.31
2018-02-04T09:11:30.128Z,98567.09
2018-02-04T09:13:57.589Z,98566.25
2018-02-04T09:16:24.992Z,98572.79
2018-02-04T09:18:52.424Z,98575.77
2018-02-04T09:21:20.152Z,98572.98
2018-02-04T09:23:47.575Z,98581.24
2018-02-04T09:26:15.019Z,98577.59
2018-02-04T09:28:42.429Z,98583.79
2018-02-04T09:31:10.538Z,98581.17
2018-02-04T09:33:37.918Z,98584.08
2018-02-04T09:36:05.324Z,98587.42
2018-02-04T09:38:33.277Z,98593.30
2018-02-04T09:41:02.524Z,98593.92
2018-02-04T09:43:29.947Z,98589.83
2018-02-04T09:45:57.354Z,98592.19
2018-02-04T09:48:25.051Z,98597.24
2018-02-04T09:50:52.466Z,98596.52
2018-02-04T09:53:19.919Z,98598.05
2018-02-04T09:55:47.312Z,98601.71
2018-02-04T09:58:14.740Z,98603.86
2018-02-04T10:00:42.194Z,98598.28
2018-02-04T10:03:09.621Z,98609.55
2018-02-04T10:05:37.248Z,98611.77
2018-02-04T10:08:11.106Z,98612.50
2018-02-04T10:10:39.136Z,98623.41
2018-02-04T10:13:06.569Z,98622.02
2018-02-04T10:15:35.696Z,98628.36
2018-02-04T10:18:03.131Z,98622.50
2018-02-04T10:20:30.902Z,98625.78
2018-02-04T10:22:58.496Z,98628.44
2018-02-04T10:25:25.935Z,98628.03
2018-02-04T10:27:53.622Z,98629.75
2018-02-04T10:30:21.584Z,98630.64
2018-02-04T10:32:49.046Z,98629.55
2018-02-04T10:35:16.852Z,98640.27
2018-02-04T10:37:45.628Z,98632.89
2018-02-04T10:40:13.403Z,98639.70
2018-02-04T10:42:40.838Z,98633.11
2018-02-04T10:45:08.651Z,98635.84
2018-02-04T10:47:36.410Z,98634.55
2018-02-04T10:50:03.971Z,98634.39
2018-02-04T10:52:32.886Z,98634.66
2018-02-04T10:55:00.361Z,98632.98
2018-02-04T10:57:27.770Z,98635.36
2018-02-04T10:59:55.206Z,98632.78
2018-02-04T11:02:23.336Z,98643.49
2018-02-04T11:04:50.760Z,98643.45
2018-02-04T11:07:18.953Z,98645.97
2018-02-04T11:09:46.374Z,98649.00
2018-02-04T11:12:13.774Z,98645.74
2018-02-04T11:14:41.193Z,98641.19
2018-02-04T11:17:08.593Z,98643.20
2018-02-04T11:19:36.153Z,98644.95
2018-02-04T11:22:04.541Z,98636.11
2018-02-04T11:24:31.958Z,98643.12
2018-02-04T11:26:59.353Z,98638.41
2018-02-04T11:29:26.784Z,98642.52
2018-02-04T11:31:54.196Z,98650.91
2018-02-04T11:34:21.609Z,98642.55
2018-02-04T11:36:49.986Z,98644.45
2018-02-04T11:39:17.375Z,98642.22
2018-02-04T11:41:44.812Z,98648.73
2018-02-04T11:44:12.204Z,98645.83
2018-02-04T11:46:39.636Z,98644.53
2018-02-04T11:49:07.008Z,98647.52
2018-02-04T11:51:34.472Z,98650.44
2018-02-04T11:54:01.869Z,98655.98
2018-02-04T11:56:29.272Z,98655.38
2018-02-04T11:58:56.676Z,98659.59
2018-02-04T12:01:24.877Z,98656.34
2018-02-04T12:03:52.282Z,98662.30
2018-02-04T12:06:19.685Z,98663.03
2018-02-04T12:08:47.089Z,98666.78
2018-02-04T12:11:14.493Z,98666.59
2018-02-04T12:13:41.905Z,98670.98
2018-02-04T12:16:09.317Z,98675.23
2018-02-04T12:18:37.424Z,98676.16
2018-02-04T12:21:04.911Z,98676.80
2018-02-04T12:23:32.292Z,98681.27
2018-02-04T12:25:59.689Z,98679.26
2018-02-04T12:28:27.090Z,98675.66
2018-02-04T12:30:54.494Z,98676.34
2018-02-04T12:33:21.896Z,98671.47
2018-02-04T12:35:49.376Z,98678.27
2018-02-04T12:38:17.592Z,98684.64
2018-02-04T12:40:44.993Z,98678.73
2018-02-04T12:43:12.812Z,98690.44
2018-02-04T12:45:40.240Z,98697.13
2018-02-04T12:48:07.632Z,98700.16
2018-02-04T12:50:35.045Z,98704.84
2018-02-04T12:53:02.497Z,98708.64
2018-02-04T12:55:29.933Z,98708.70
2018-02-04T12:57:57.340Z,98714.73
2018-02-04T13:00:24.745Z,98717.48
2018-02-04T13:02:52.140Z,98721.41
2018-02-04T13:05:19.564Z,98722.37
2018-02-04T13:07:46.977Z,98725.49
2018-02-04T13:10:14.374Z,98722.36
2018-02-04T13:12:41.866Z,98722.67
2018-02-04T13:15:09.268Z,98726.55
2018-02-04T13:17:36.890Z,98724.11
2018-02-04T13:20:04.288Z,98728.74
2018-02-04T13:22:31.688Z,98734.42
2018-02-04T13:24:59.084Z,98741.27
2018-02-04T13:27:27.344Z,98745.11
2018-02-04T13:29:54.801Z,98744.66
2018-02-04T13:32:22.214Z,98750.42
2018-02-04T13:34:49.622Z,98756.75
2018-02-04T13:37:17.029Z,98759.48
2018-02-04T13:39:44.433Z,98760.02
2018-02-04T13:42:11.844Z,98762.79
2018-02-04T13:44:39.244Z,98758.95
2018-02-04T13:47:06.684Z,98764.55
2018-02-04T13:49:34.486Z,98767.02
2018-02-04T13:52:01.923Z,98772.08
2018-02-04T13:54:30.117Z,98772.86
2018-02-04T13:56:58.296Z,98779.17
2018-02-04T13:59:25.714Z,98772.42
2018-02-04T14:01:53.140Z,98774.41
2018-02-04T14:04:20.532Z,98777.23
2018-02-04T14:06:48.004Z,98774.51
2018-02-04T14:09:15.414Z,98785.78
2018-02-04T14:11:42.812Z,98784.66
2018-02-04T14:14:10.217Z,98791.02
2018-02-04T14:16:37.833Z,98787.78
2018-02-04T14:19:05.313Z,98785.80
2018-02-04T14:21:32.712Z,98796.60
2018-02-04T14:24:00.141Z,98794.63
2018-02-04T14:26:27.536Z,98798.70
2018-02-04T14:28:55.010Z,98804.67
2018-02-04T14:31:22.421Z,98800.66
2018-02-04T14:33:49.913Z,98801.27
2018-02-04T14:36:17.314Z,98805.70
2018-02-04T14:38:44.723Z,98808.11
2018-02-04T14:41:12.238Z,98815.52
2018-02-04T14:43:39.604Z,98815.45
2018-02-04T14:46:07.048Z,98811.75
2018-02-04T14:48:34.542Z,98818.53
2018-02-04T14:51:01.932Z,98818.22
2018-02-04T14:53:30.147Z,98822.34
2018-02-04T14:55:57.537Z,98823.14
2018-02-04T14:58:25.311Z,98828.02
2018-02-04T15:00:52.697Z,98830.05
2018-02-04T15:03:20.105Z,98834.63
2018-02-04T15:05:47.526Z,98836.69
2018-02-04T15:08:15.023Z,98839.33
2018-02-04T15:10:42.873Z,98839.05
2018-02-04T15:13:10.260Z,98842.46
2018-02-04T15:15:37.707Z,98846.85
2018-02-04T15:18:05.125Z,98843.92
2018-02-04T15:20:32.536Z,98846.42
2018-02-04T15:23:00.957Z,98847.85
2018-02-04T15:25:29.262Z,98853.14
2018-02-04T15:27:56.653Z,98852.79
2018-02-04T15:30:24.080Z,98857.76
2018-02-04T15:32:51.482Z,98861.57
2018-02-04T15:35:18.902Z,98860.30
2018-02-04T15:37:46.299Z,98865.96
2018-02-04T15:40:13.716Z,98870.76
2018-02-04T15:42:41.129Z,98874.41
2018-02-04T15:45:08.577Z,98879.13
2018-02-04T15:47:36.692Z,98881.08
2018-02-04T15:50:05.096Z,98885.98
2018-02-04T15:52:32.499Z,98894.84
2018-02-04T15:54:59.913Z,98890.87
2018-02-04T15:57:29.126Z,98894.13
2018-02-04T15:59:56.490Z,98898.92
2018-02-04T16:02:23.908Z,98902.63
2018-02-04T16:04:51.320Z,98903.61
2018-02-04T16:07:18.727Z,98902.47
2018-02-04T16:09:46.146Z,98909.80
2018-02-04T16:12:13.549Z,98908.17
2018-02-04T16:14:40.981Z,98910.28
2018-02-04T16:17:08.377Z,98910.34
2018-02-04T16:19:35.800Z,98914.98
2018-02-04T16:22:04.120Z,98913.08
2018-02-04T16:24:31.524Z,98917.37
2018-02-04T16:26:59.064Z,98921.59
2018-02-04T16:29:26.471Z,98918.88
2018-02-04T16:31:53.973Z,98920.59
2018-02-04T16:34:21.378Z,98921.58
2018-02-04T16:36:48.792Z,98926.09
2018-02-04T16:39:16.197Z,98927.47
2018-02-04T16:41:43.654Z,98930.91
2018-02-04T16:44:11.120Z,98933.30
2018-02-04T16:46:38.542Z,98932.38
2018-02-04T16:49:06.024Z,98936.52
2018-02-04T16:51:33.980Z,98934.84
2018-02-04T16:54:01.407Z,98940.48
2018-02-04T16:56:31.675Z,98940.30
2018-02-04T16:58:59.145Z,98933.73
2018-02-04T17:01:26.576Z,98941.76
2018-02-04T17:03:53.974Z,98940.48
2018-02-04T17:06:21.389Z,98941.71
2018-02-04T17:08:48.854Z,98944.19
2018-02-04T17:11:16.309Z,98955.59
2018-02-04T17:13:44.628Z,98951.31
2018-02-04T17:16:12.198Z,98952.45
2018-02-04T17:18:39.656Z,98954.02
2018-02-04T17:21:07.134Z,98951.85
2018-02-04T17:23:35.194Z,98964.09
2018-02-04T17:26:02.671Z,98964.59
2018-02-04T17:28:30.097Z,98966.01
2018-02-04T17:30:57.547Z,98974.28
2018-02-04T17:33:24.941Z,98975.14
2018-02-04T17:35:52.357Z,98977.21
2018-02-04T17:38:19.764Z,98973.72
2018-02-04T17:40:47.228Z,98975.88
2018-02-04T17:43:14.628Z,98968.61
2018-02-04T17:45:42.035Z,98978.83
2018-02-04T17:48:09.508Z,98978.35
2018-02-04T17:50:36.920Z,98980.58
2018-02-04T17:53:04.347Z,98983.91
2018-02-04T17:55:31.822Z,98985.86
2018-02-04T17:57:59.270Z,98979.74
2018-02-04T18:00:26.671Z,98979.53
2018-02-04T18:02:54.076Z,98984.58
2018-02-04T18:05:22.233Z,98985.33
2018-02-04T18:07:49.726Z,98983.48
2018-02-04T18:10:17.400Z,98988.81
2018-02-04T18:12:44.870Z,98987.95
2018-02-04T18:15:12.370Z,98990.56
2018-02-04T18:17:39.800Z,98989.75
2018-02-04T18:20:07.188Z,98994.64
2018-02-04T18:22:34.619Z,98989.63
2018-02-04T18:25:02.020Z,98991.23
2018-02-04T18:27:29.439Z,98994.05
2018-02-04T18:29:56.840Z,99000.31
2018-02-04T18:32:24.298Z,98997.83
2018-02-04T18:34:51.742Z,99008.17
2018-02-04T18:37:19.145Z,99003.70
2018-02-04T18:39:47.469Z,98999.75
2018-02-04T18:42:14.925Z,99006.91
2018-02-04T18:44:42.324Z,99007.02
2018-02-04T18:47:09.794Z,99014.83
2018-02-04T18:49:37.184Z,99018.06
2018-02-04T18:52:04.592Z,99016.69
2018-02-04T18:54:32.990Z,99017.41
2018-02-04T18:57:00.393Z,99018.05
2018-02-04T18:59:27.878Z,99029.05
2018-02-04T19:01:55.293Z,99031.55
2018-02-04T19:04:22.723Z,99032.55
2018-02-04T19:06:50.135Z,99030.01
2018-02-04T19:09:17.559Z,99032.09
2018-02-04T19:11:45.004Z,99030.82
2018-02-04T19:14:12.409Z,99035.48
2018-02-04T19:16:39.816Z,99042.89
2018-02-04T19:19:07.224Z,99043.53
2018-02-04T19:21:34.982Z,99039.28
2018-02-04T19:24:02.450Z,99036.99
2018-02-04T19:26:29.837Z,99053.25
2018-02-04T19:28:57.371Z,99048.20
2018-02-04T19:31:24.812Z,99048.41
2018-02-04T19:33:52.230Z,99048.27
2018-02-04T19:36:19.676Z,99052.04
2018-02-04T19:38:47.136Z,99052.92
2018-02-04T19:41:14.528Z,99053.03
2018-02-04T19:43:41.940Z,99051.13
2018-02-04T19:46:09.388Z,99054.89
2018-02-04T19:48:36.785Z,99054.17
2018-02-04T19:51:04.246Z,99058.75
2018-02-04T19:53:31.657Z,99056.50
2018-02-04T19:55:59.056Z,99060.31
2018-02-04T19:58:26.516Z,99057.49
2018-02-04T20:00:53.908Z,99062.13
2018-02-04T20:03:21.364Z,99057.89
2018-02-04T20:05:48.776Z,99053.63
2018-02-04T20:08:16.172Z,99063.19
2018-02-04T20:10:43.588Z,99063.76
2018-02-04T20:13:11.582Z,99071.17
2018-02-04T20:15:39.049Z,99077.22
2018-02-04T20:18:06.507Z,99076.90
2018-02-04T20:20:33.964Z,99078.94
2018-02-04T20:23:01.412Z,99075.55
2018-02-04T20:25:28.836Z,99081.51
2018-02-04T20:27:56.237Z,99079.44
2018-02-04T20:30:23.694Z,99081.71
2018-02-04T20:33:06.500Z,99084.40
2018-02-04T20:35:44.797Z,99091.98
2018-02-04T20:38:12.457Z,99092.17
2018-02-04T20:40:39.923Z,99094.48
2018-02-04T20:43:07.367Z,99097.91
2018-02-04T20:45:34.820Z,99103.81
2018-02-04T20:48:02.227Z,99105.45
2018-02-04T20:50:29.684Z,99099.72
2018-02-04T20:52:57.090Z,99107.65
2018-02-04T20:55:24.539Z,99105.21
2018-02-04T20:57:51.913Z,99105.19
2018-02-04T21:00:19.384Z,99106.05
2018-02-04T21:02:46.781Z,99108.41
2018-02-04T21:05:14.192Z,99108.16
2018-02-04T21:07:41.596Z,99108.84
2018-02-04T21:10:09.005Z,99105.61
2018-02-04T21:12:36.473Z,99108.50
2018-02-04T21:15:03.879Z,99106.59
2018-02-04T21:17:31.322Z,99111.88
2018-02-04T21:19:58.728Z,99119.57
2018-02-04T21:22:26.134Z,99116.62
2018-02-04T21:24:53.596Z,99111.08
2018-02-04T21:27:21.001Z,99112.11
2018-02-04T21:29:48.404Z,99114.28
2018-02-04T21:32:15.868Z,99125.41
2018-02-04T21:34:43.265Z,99123.98
2018-02-04T21:37:10.676Z,99135.34
2018-02-04T21:39:38.125Z,99128.98
2018-02-04T21:42:05.537Z,99137.28
2018-02-04T21:44:32.950Z,99143.48
2018-02-04T21:47:00.410Z,99143.04
2018-02-04T21:49:27.860Z,99150.60
2018-02-04T21:51:55.257Z,99144.75
2018-02-04T21:54:23.270Z,99148.93
2018-02-04T21:56:50.714Z,99149.16
2018-02-04T22:02:41.819Z,99156.98
2018-02-04T22:05:09.217Z,99153.23
2018-02-04T22:07:36.640Z,99147.80
2018-02-04T22:10:04.059Z,99154.77
2018-02-04T22:12:31.465Z,99151.21
2018-02-04T22:14:58.876Z,99159.03
2018-02-04T22:17:26.288Z,99155.23
2018-02-04T22:19:53.696Z,99158.48
2018-02-04T22:22:21.108Z,99160.09
2018-02-04T22:24:48.525Z,99156.14
2018-02-04T22:27:15.937Z,99165.77
2018-02-04T22:29:43.347Z,99162.33
2018-02-04T22:32:10.772Z,99161.47
2018-02-04T22:34:38.192Z,99159.08
2018-02-04T22:37:05.608Z,99165.22
2018-02-04T22:39:33.323Z,99163.94
2018-02-04T22:42:00.740Z,99166.85
2018-02-04T22:44:28.148Z,99168.00
2018-02-04T22:46:55.569Z,99169.88
2018-02-04T22:49:23.348Z,99180.28
2018-02-04T22:51:50.769Z,99182.02
2018-02-04T22:54:19.134Z,99180.34
2018-02-04T22:56:46.503Z,99182.05
2018-02-04T22:59:13.913Z,99195.54
2018-02-04T23:01:41.328Z,99190.08
2018-02-04T23:04:08.734Z,99191.66
2018-02-04T23:06:36.148Z,99191.11
2018-02-04T23:09:03.557Z,99197.30
2018-02-04T23:11:30.973Z,99190.14
2018-02-04T23:13:58.384Z,99191.67
2018-02-04T23:16:25.788Z,99185.91
2018-02-04T23:18:53.214Z,99187.80
2018-02-04T23:21:20.613Z,99189.11
2018-02-04T23:23:48.028Z,99199.20
2018-02-04T23:26:15.436Z,99194.08
2018-02-04T23:28:42.849Z,99201.07
2018-02-04T23:31:10.257Z,99190.75
2018-02-04T23:33:37.671Z,99185.89
2018-02-04T23:36:05.088Z,99188.03
2018-02-04T23:38:32.509Z,99194.86
2018-02-04T23:40:59.925Z,99183.26
2018-02-04T23:43:27.337Z,99190.00
2018-02-04T23:45:54.786Z,99188.39
2018-02-04T23:48:22.163Z,99193.04
2018-02-04T23:50:49.592Z,99191.38
2018-02-04T23:53:17.009Z,99189.55
2018-02-04T23:55:44.424Z,99186.91
2018-02-04T23:58:11.841Z,99190.63
